RJOS(METAR)
03/23 15:00
METAR RJOS 230600Z 02007KT 9999 FEW030 BKN100 11/M03 Q1016 RMK 1CU030
7AC100 A3002=
戻る
トップページへ戻る
IMOC Co,.Ltd.